Time;durP1;ratioP1;P1;durP2;ratioP2;P2;SDS_P1;SDS_P2;PMS_P1;PMS_P2;Temp;Humidity;BMP_temperature;BMP_pressure;BME280_temperature;BME280_humidity;BME280_pressure;Samples;Min_cycle;Max_cycle;Signal;HPM_P1;HPM_P2
2023/10/27 00:00:39;;;;;;;5.90;2.75;;;;;;;9.26;100.00;95249.56;5044040;28;20059;-62
2023/10/27 00:03:06;;;;;;;7.13;2.83;;;;;;;9.26;100.00;95244.16;5044760;28;20386;-62
2023/10/27 00:05:33;;;;;;;7.57;2.58;;;;;;;9.20;100.00;95254.25;5043044;28;20052;-62
2023/10/27 00:07:59;;;;;;;4.55;2.15;;;;;;;9.19;100.00;95258.88;5047401;28;20040;-62
2023/10/27 00:10:28;;;;;;;8.57;2.47;;;;;;;9.15;100.00;95254.34;5046254;28;20492;-62
2023/10/27 00:12:54;;;;;;;8.00;2.60;;;;;;;9.15;100.00;95257.84;5044394;28;20071;-62
2023/10/27 00:15:22;;;;;;;5.88;2.75;;;;;;;9.13;100.00;95261.94;5040084;28;20573;-62
2023/10/27 00:17:48;;;;;;;6.95;2.50;;;;;;;9.14;100.00;95258.94;5046339;28;20047;-61
2023/10/27 00:20:15;;;;;;;9.68;2.92;;;;;;;9.16;100.00;95251.34;5043420;28;20519;-61
2023/10/27 00:22:42;;;;;;;5.93;2.63;;;;;;;9.23;100.00;95250.97;5043465;28;20037;-62
2023/10/27 00:25:08;;;;;;;4.55;2.28;;;;;;;9.21;100.00;95237.75;5044205;28;20033;-61
2023/10/27 00:27:35;;;;;;;7.65;2.80;;;;;;;9.21;100.00;95235.06;5046763;28;20544;-62
2023/10/27 00:30:02;;;;;;;5.63;2.60;;;;;;;9.20;100.00;95246.16;5044663;28;20041;-62
2023/10/27 00:32:29;;;;;;;8.35;2.20;;;;;;;9.21;100.00;95240.47;5043416;28;20123;-62
2023/10/27 00:34:55;;;;;;;6.85;3.72;;;;;;;9.20;100.00;95254.25;5039455;28;20055;-62
2023/10/27 00:37:22;;;;;;;8.07;2.58;;;;;;;9.14;100.00;95242.72;5044637;28;20052;-61
2023/10/27 00:39:49;;;;;;;7.35;2.70;;;;;;;9.10;100.00;95261.41;5041808;28;20099;-61
2023/10/27 00:42:16;;;;;;;6.78;2.50;;;;;;;9.11;100.00;95254.91;5041351;28;20106;-62
2023/10/27 00:44:43;;;;;;;9.90;2.50;;;;;;;9.06;100.00;95262.28;5048393;28;20033;-62
2023/10/27 00:47:10;;;;;;;6.57;2.28;;;;;;;9.06;100.00;95259.59;5039361;28;20118;-62
2023/10/27 00:49:37;;;;;;;7.05;2.60;;;;;;;9.10;100.00;95252.50;5044720;28;20155;-61
2023/10/27 00:52:04;;;;;;;7.93;2.80;;;;;;;9.14;100.00;95256.22;5046785;28;20645;-61
2023/10/27 00:54:31;;;;;;;10.52;2.90;;;;;;;9.12;100.00;95239.53;5039908;28;21723;-62
2023/10/27 00:56:58;;;;;;;6.57;2.40;;;;;;;9.07;100.00;95229.59;5045304;28;20041;-62
2023/10/27 00:59:25;;;;;;;5.75;1.77;;;;;;;9.03;100.00;95230.50;5042814;28;20041;-62
2023/10/27 01:01:52;;;;;;;6.65;2.42;;;;;;;9.05;100.00;95226.41;5033309;28;20049;-62
2023/10/27 01:04:18;;;;;;;6.78;2.05;;;;;;;9.01;100.00;95220.00;5043309;28;20108;-62
2023/10/27 01:06:45;;;;;;;7.82;2.08;;;;;;;8.95;100.00;95232.78;5041742;28;20065;-60
2023/10/27 01:09:13;;;;;;;6.68;1.90;;;;;;;8.94;100.00;95222.28;5034796;28;20041;-61
2023/10/27 01:11:40;;;;;;;6.88;2.10;;;;;;;9.02;100.00;95227.00;5038050;28;20124;-61
2023/10/27 01:14:06;;;;;;;5.90;1.80;;;;;;;9.11;100.00;95219.81;5043533;28;20037;-62
2023/10/27 01:16:33;;;;;;;3.85;1.50;;;;;;;9.05;100.00;95204.81;5039348;28;20043;-62
2023/10/27 01:18:59;;;;;;;5.72;2.05;;;;;;;9.07;100.00;95216.09;5045675;28;20683;-62
2023/10/27 01:21:26;;;;;;;4.82;1.80;;;;;;;9.07;100.00;95220.72;5043030;28;20053;-62
2023/10/27 01:23:53;;;;;;;6.03;2.00;;;;;;;9.13;100.00;95230.31;5037508;28;20040;-62
2023/10/27 01:26:19;;;;;;;5.90;2.00;;;;;;;9.18;100.00;95249.13;5044243;28;20036;-62
2023/10/27 01:28:46;;;;;;;6.20;1.70;;;;;;;9.18;100.00;95237.56;5046305;28;20032;-61
2023/10/27 01:31:13;;;;;;;8.23;2.10;;;;;;;9.17;100.00;95236.75;5033007;28;20056;-62
2023/10/27 01:33:39;;;;;;;4.05;1.77;;;;;;;9.14;100.00;95218.44;5037918;28;20037;-62
2023/10/27 01:36:06;;;;;;;7.78;1.88;;;;;;;9.11;100.00;95219.03;5046953;28;20041;-61
2023/10/27 01:38:33;;;;;;;5.13;1.67;;;;;;;9.21;100.00;95253.16;5049032;28;20040;-62
2023/10/27 01:40:59;;;;;;;4.03;1.63;;;;;;;9.22;100.00;95252.06;5048736;28;20040;-62
2023/10/27 01:43:26;;;;;;;5.43;1.92;;;;;;;9.13;100.00;95210.66;5053382;28;20032;-62
2023/10/27 01:45:55;;;;;;;7.85;1.67;;;;;;;9.08;100.00;95195.31;5045817;28;20064;-62
2023/10/27 01:48:22;;;;;;;4.28;1.83;;;;;;;9.05;100.00;95212.91;5049699;28;20140;-62
2023/10/27 01:50:49;;;;;;;3.20;1.58;;;;;;;8.89;100.00;95200.75;5042328;28;20056;-62
2023/10/27 01:53:16;;;;;;;3.15;1.50;;;;;;;8.87;100.00;95225.34;5033193;28;20055;-62
2023/10/27 01:55:42;;;;;;;3.72;1.50;;;;;;;8.85;100.00;95222.94;5039507;28;20501;-62
2023/10/27 01:58:09;;;;;;;4.10;1.92;;;;;;;8.85;100.00;95222.16;5047706;28;20045;-62
2023/10/27 02:00:36;;;;;;;4.82;1.50;;;;;;;8.91;100.00;95225.53;5043706;28;20581;-62
2023/10/27 02:03:02;;;;;;;3.63;1.52;;;;;;;8.91;100.00;95231.75;5046804;28;20037;-61
2023/10/27 02:05:29;;;;;;;4.78;1.20;;;;;;;8.90;100.00;95219.38;5042397;28;20043;-61
2023/10/27 02:07:58;;;;;;;9.18;2.33;;;;;;;8.86;100.00;95202.16;5048617;28;20136;-61
2023/10/27 02:10:25;;;;;;;5.70;1.60;;;;;;;8.88;100.00;95205.34;5049762;28;20098;-62
2023/10/27 02:12:51;;;;;;;5.05;1.05;;;;;;;8.85;100.00;95187.06;5049264;28;20075;-62
2023/10/27 02:15:18;;;;;;;4.30;1.20;;;;;;;8.85;100.00;95176.28;5047440;28;20048;-62
2023/10/27 02:17:45;;;;;;;3.90;1.40;;;;;;;8.88;100.00;95172.97;5042879;28;20033;-62
2023/10/27 02:20:11;;;;;;;2.97;1.30;;;;;;;8.80;100.00;95163.66;5045561;28;20124;-62
2023/10/27 02:22:40;;;;;;;1.67;0.88;;;;;;;8.52;100.00;95146.53;5041290;28;20041;-61
2023/10/27 02:25:06;;;;;;;3.70;1.10;;;;;;;8.41;100.00;95165.56;5041120;28;20052;-61
2023/10/27 02:27:38;;;;;;;4.72;1.60;;;;;;;8.30;100.00;95201.88;5043526;28;20404;-62
2023/10/27 02:30:06;;;;;;;7.57;1.60;;;;;;;8.18;100.00;95221.16;5044427;28;20061;-61
2023/10/27 02:32:33;;;;;;;4.30;1.70;;;;;;;8.18;100.00;95243.53;5048971;28;20049;-61
2023/10/27 02:35:00;;;;;;;5.80;1.50;;;;;;;8.22;100.00;95256.44;5044526;28;20048;-61
2023/10/27 02:37:26;;;;;;;5.82;2.28;;;;;;;8.24;100.00;95249.66;5044542;28;20032;-61
2023/10/27 02:39:53;;;;;;;6.65;1.65;;;;;;;8.24;100.00;95244.28;5045176;28;20053;-61
2023/10/27 02:42:21;;;;;;;3.80;1.35;;;;;;;8.19;100.00;95244.34;5049115;28;20095;-60
2023/10/27 02:44:48;;;;;;;3.90;1.30;;;;;;;8.19;100.00;95236.25;5048579;28;20480;-61
2023/10/27 02:47:14;;;;;;;7.72;1.42;;;;;;;8.28;100.00;95253.38;5051496;28;20051;-61
2023/10/27 02:49:41;;;;;;;3.88;1.27;;;;;;;8.30;100.00;95242.31;5042422;28;20646;-61
2023/10/27 02:52:08;;;;;;;2.45;1.30;;;;;;;8.28;100.00;95221.03;5045844;28;20033;-61
2023/10/27 02:54:35;;;;;;;5.00;1.15;;;;;;;8.29;100.00;95211.84;5046657;28;20025;-62
2023/10/27 02:57:01;;;;;;;2.10;1.00;;;;;;;8.39;100.00;95227.09;5045054;28;20116;-61
2023/10/27 02:59:28;;;;;;;2.85;1.20;;;;;;;8.47;100.00;95225.63;5049197;28;20090;-62
2023/10/27 03:01:54;;;;;;;7.70;1.48;;;;;;;8.47;100.00;95212.13;5029336;28;20144;-61
2023/10/27 03:04:21;;;;;;;4.40;1.10;;;;;;;8.53;100.00;95199.41;5039378;28;20033;-62
2023/10/27 03:06:48;;;;;;;2.67;1.30;;;;;;;8.63;100.00;95217.34;5051053;28;20492;-61
2023/10/27 03:09:14;;;;;;;4.85;1.45;;;;;;;8.56;100.00;95182.66;5028742;28;20044;-62
2023/10/27 03:11:41;;;;;;;6.15;1.48;;;;;;;8.41;100.00;95154.00;5048746;28;20039;-62
2023/10/27 03:14:08;;;;;;;3.75;1.30;;;;;;;8.46;100.00;95160.13;5043909;28;20396;-62
2023/10/27 03:16:35;;;;;;;5.28;1.55;;;;;;;8.51;100.00;95163.81;5034405;28;20048;-62
2023/10/27 03:19:01;;;;;;;4.20;1.40;;;;;;;8.59;100.00;95163.97;5041367;28;20094;-62
2023/10/27 03:21:28;;;;;;;6.22;1.50;;;;;;;8.69;100.00;95152.22;5045274;28;20063;-62
2023/10/27 03:23:55;;;;;;;3.83;1.30;;;;;;;8.62;100.00;95127.50;5043392;28;20188;-62
2023/10/27 03:26:21;;;;;;;4.32;1.50;;;;;;;8.56;100.00;95142.97;5048406;28;20037;-62
2023/10/27 03:28:48;;;;;;;5.82;1.58;;;;;;;8.55;100.00;95130.59;5041335;28;20548;-62
2023/10/27 03:31:15;;;;;;;3.92;1.52;;;;;;;8.59;100.00;95145.09;5044713;28;20516;-61
2023/10/27 03:33:41;;;;;;;3.42;1.23;;;;;;;8.61;100.00;95142.09;5046201;28;20499;-62
2023/10/27 03:36:10;;;;;;;6.40;1.27;;;;;;;8.68;100.00;95155.22;5048390;28;20029;-62
2023/10/27 03:38:37;;;;;;;4.07;1.33;;;;;;;8.64;100.00;95129.91;5048179;28;20496;-61
2023/10/27 03:41:04;;;;;;;3.92;1.00;;;;;;;8.68;100.00;95120.16;5040316;28;20121;-62
2023/10/27 03:43:31;;;;;;;3.22;1.20;;;;;;;8.70;100.00;95107.19;5043302;28;20043;-62
2023/10/27 03:45:59;;;;;;;3.67;1.00;;;;;;;8.70;100.00;95099.09;5040909;28;20033;-62
2023/10/27 03:48:26;;;;;;;3.25;1.33;;;;;;;8.70;100.00;95083.69;5040762;28;20071;-62
2023/10/27 03:50:53;;;;;;;8.43;1.30;;;;;;;8.68;100.00;95085.06;5039860;28;20072;-62
2023/10/27 03:53:19;;;;;;;7.45;1.35;;;;;;;8.55;100.00;95075.88;5044498;28;20044;-62
2023/10/27 03:55:53;;;;;;;3.97;1.33;;;;;;;8.58;100.00;95089.56;5045189;28;20059;-62
2023/10/27 03:58:19;;;;;;;4.78;1.42;;;;;;;8.57;100.00;95100.63;5040480;28;20124;-62
2023/10/27 04:00:58;;;;;;;5.90;1.13;;;;;;;8.46;100.00;95103.47;5047141;28;20547;-62
2023/10/27 04:03:25;;;;;;;3.80;1.10;;;;;;;8.38;100.00;95114.94;5040899;28;20034;-62
2023/10/27 04:05:52;;;;;;;2.78;1.23;;;;;;;8.40;100.00;95118.13;5045784;28;20119;-63
2023/10/27 04:08:18;;;;;;;4.97;1.40;;;;;;;8.35;100.00;95130.88;5045549;28;20041;-62
2023/10/27 04:10:45;;;;;;;6.80;1.73;;;;;;;8.26;100.00;95139.63;5044907;28;20516;-62
2023/10/27 04:13:12;;;;;;;4.10;1.38;;;;;;;8.37;100.00;95145.66;5046942;28;20060;-62
2023/10/27 04:15:39;;;;;;;3.80;1.70;;;;;;;8.33;100.00;95142.75;5043629;28;20721;-62
2023/10/27 04:18:05;;;;;;;3.55;1.65;;;;;;;8.35;100.00;95145.16;5044546;28;20123;-62
2023/10/27 04:20:32;;;;;;;6.03;1.50;;;;;;;8.33;100.00;95141.94;5045293;28;20041;-62
2023/10/27 04:22:58;;;;;;;3.03;1.55;;;;;;;8.33;100.00;95148.16;5044630;28;20043;-62
2023/10/27 04:25:25;;;;;;;5.28;2.50;;;;;;;8.27;100.00;95133.16;5042612;28;20037;-62
2023/10/27 04:27:52;;;;;;;6.75;2.38;;;;;;;8.29;100.00;95140.97;5048446;28;20045;-62
2023/10/27 04:30:19;;;;;;;4.40;2.00;;;;;;;8.41;100.00;95135.13;5046027;28;20167;-62
2023/10/27 04:32:47;;;;;;;5.25;2.35;;;;;;;8.31;100.00;95122.59;5049534;28;20070;-62
2023/10/27 04:35:13;;;;;;;6.95;2.55;;;;;;;8.35;100.00;95114.69;5045833;28;20470;-62
2023/10/27 04:37:40;;;;;;;6.97;2.40;;;;;;;8.39;100.00;95116.53;5045557;28;20047;-62
2023/10/27 04:40:08;;;;;;;5.88;2.28;;;;;;;8.42;100.00;95107.03;5043939;28;20033;-62
2023/10/27 04:42:35;;;;;;;4.43;2.55;;;;;;;8.43;100.00;95095.97;5044356;28;20049;-62
2023/10/27 04:45:02;;;;;;;6.47;2.38;;;;;;;8.51;100.00;95096.41;5051658;28;20037;-62
2023/10/27 04:47:28;;;;;;;4.90;2.40;;;;;;;8.54;100.00;95095.81;5044336;28;20041;-62
2023/10/27 04:49:55;;;;;;;5.40;2.30;;;;;;;8.55;100.00;95094.75;5039643;28;20061;-62
2023/10/27 04:52:22;;;;;;;5.53;2.45;;;;;;;8.55;100.00;95094.75;5044991;28;20416;-62
2023/10/27 04:54:48;;;;;;;6.00;1.88;;;;;;;8.56;100.00;95093.66;5038348;28;20033;-62
2023/10/27 04:57:15;;;;;;;5.38;2.50;;;;;;;8.55;100.00;95102.84;5043820;28;20036;-62
2023/10/27 04:59:41;;;;;;;5.00;2.00;;;;;;;8.56;100.00;95104.44;5033330;28;20044;-62
2023/10/27 05:02:08;;;;;;;5.15;2.53;;;;;;;8.55;100.00;95108.22;5044238;28;20677;-62
2023/10/27 05:04:35;;;;;;;5.05;2.25;;;;;;;8.51;100.00;95120.66;5041327;28;20044;-61
2023/10/27 05:07:03;;;;;;;5.53;2.05;;;;;;;8.54;100.00;95125.50;5042435;28;20033;-63
2023/10/27 05:09:29;;;;;;;5.45;2.42;;;;;;;8.68;100.00;95172.22;5051494;28;20044;-62
2023/10/27 05:11:56;;;;;;;5.88;2.42;;;;;;;8.67;100.00;95157.09;5045788;28;20047;-62
2023/10/27 05:14:23;;;;;;;4.88;2.03;;;;;;;8.65;100.00;95145.00;5048355;28;20037;-62
2023/10/27 05:16:50;;;;;;;4.85;2.08;;;;;;;8.69;100.00;95157.63;5039513;28;20056;-62
2023/10/27 05:19:16;;;;;;;5.47;2.13;;;;;;;8.68;100.00;95150.63;5039518;28;20046;-62
2023/10/27 05:21:43;;;;;;;3.97;2.17;;;;;;;8.71;100.00;95150.03;5046876;28;20492;-62
2023/10/27 05:24:11;;;;;;;3.83;2.17;;;;;;;8.78;100.00;95159.66;5046694;28;20041;-62
2023/10/27 05:26:37;;;;;;;3.30;1.88;;;;;;;8.75;100.00;95133.25;5036173;28;20051;-61
2023/10/27 05:29:04;;;;;;;3.63;2.00;;;;;;;8.70;100.00;95131.47;5043548;28;20041;-62
2023/10/27 05:31:30;;;;;;;4.85;1.70;;;;;;;8.64;100.00;95130.75;5045182;28;20045;-62
2023/10/27 05:33:57;;;;;;;4.30;1.25;;;;;;;8.56;100.00;95115.22;5041889;28;20048;-62
2023/10/27 05:36:24;;;;;;;2.65;1.10;;;;;;;8.50;100.00;95119.88;5044567;28;20064;-62
2023/10/27 05:38:51;;;;;;;1.98;0.82;;;;;;;8.54;100.00;95130.88;5041871;28;20515;-62
2023/10/27 05:41:17;;;;;;;4.63;1.20;;;;;;;8.62;100.00;95142.91;5041790;28;20041;-62
2023/10/27 05:43:44;;;;;;;4.43;1.10;;;;;;;8.55;100.00;95135.19;5045007;28;20060;-62
2023/10/27 05:46:11;;;;;;;3.60;1.20;;;;;;;8.62;100.00;95137.53;5040182;28;20754;-63
2023/10/27 05:48:37;;;;;;;3.50;1.30;;;;;;;8.59;100.00;95145.09;5045910;28;20061;-62
2023/10/27 05:51:04;;;;;;;2.38;1.15;;;;;;;8.70;100.00;95136.84;5037238;28;20044;-62
2023/10/27 05:53:30;;;;;;;4.10;1.50;;;;;;;8.69;100.00;95135.22;5046755;28;20041;-62
2023/10/27 05:55:57;;;;;;;6.68;1.15;;;;;;;8.77;100.00;95139.16;5043572;28;20051;-62
2023/10/27 05:58:23;;;;;;;3.15;0.93;;;;;;;8.80;100.00;95133.97;5042185;28;20052;-62
2023/10/27 06:00:50;;;;;;;2.85;0.95;;;;;;;8.65;100.00;95145.00;5043705;28;20520;-62
2023/10/27 06:03:16;;;;;;;3.90;0.80;;;;;;;8.53;100.00;95153.56;5044433;28;20049;-62
2023/10/27 06:05:44;;;;;;;2.90;1.10;;;;;;;8.55;100.00;95162.97;5039339;28;20094;-63
2023/10/27 06:08:11;;;;;;;2.97;2.00;;;;;;;8.72;100.00;95158.94;5046370;28;20052;-63
2023/10/27 06:10:37;;;;;;;4.78;1.10;;;;;;;8.81;100.00;95150.97;5044100;28;20570;-63
2023/10/27 06:13:04;;;;;;;2.28;1.00;;;;;;;8.65;100.00;95158.50;5035129;28;20110;-62
2023/10/27 06:15:31;;;;;;;1.85;0.95;;;;;;;8.73;100.00;95157.03;5040934;28;20045;-63
2023/10/27 06:17:57;;;;;;;3.42;1.23;;;;;;;8.83;100.00;95146.06;5038454;28;20053;-62
2023/10/27 06:20:24;;;;;;;1.83;0.90;;;;;;;8.70;100.00;95161.91;5037836;28;20044;-62
2023/10/27 06:22:51;;;;;;;3.30;1.05;;;;;;;8.64;100.00;95165.81;5042508;28;20047;-62
2023/10/27 06:25:18;;;;;;;3.33;1.00;;;;;;;8.61;100.00;95182.56;5045522;28;20048;-62
2023/10/27 06:27:45;;;;;;;2.55;0.95;;;;;;;8.55;100.00;95179.16;5047658;28;20036;-62
2023/10/27 06:30:11;;;;;;;3.13;0.90;;;;;;;8.62;100.00;95181.47;5042489;28;21262;-62
2023/10/27 06:32:38;;;;;;;2.90;0.98;;;;;;;8.55;100.00;95184.53;5048717;28;20040;-63
2023/10/27 06:35:05;;;;;;;1.95;0.80;;;;;;;8.70;100.00;95175.41;5042848;28;20758;-63
2023/10/27 06:37:31;;;;;;;2.08;0.80;;;;;;;8.79;100.00;95185.53;5046262;28;20041;-62
2023/10/27 06:40:01;;;;;;;2.63;0.85;;;;;;;8.94;100.00;95176.38;5046689;28;20057;-62
2023/10/27 06:42:28;;;;;;;2.70;0.82;;;;;;;8.91;100.00;95190.47;5041384;28;20041;-62
2023/10/27 06:44:55;;;;;;;2.85;0.90;;;;;;;9.00;100.00;95185.22;5038745;28;20044;-62
2023/10/27 06:47:22;;;;;;;1.35;0.50;;;;;;;9.07;100.00;95189.13;5048889;28;20051;-62
2023/10/27 06:49:49;;;;;;;2.13;0.80;;;;;;;9.14;100.00;95183.31;5046133;28;20091;-62
2023/10/27 06:52:16;;;;;;;1.60;0.57;;;;;;;9.11;100.00;95183.94;5042084;28;20116;-62
2023/10/27 06:54:43;;;;;;;2.10;0.43;;;;;;;9.16;100.00;95189.25;5046300;28;20041;-62
2023/10/27 06:57:10;;;;;;;0.55;0.30;;;;;;;9.33;100.00;95187.88;5043295;28;20090;-63
2023/10/27 06:59:37;;;;;;;1.30;0.38;;;;;;;9.43;100.00;95182.28;5049548;28;20037;-63
2023/10/27 07:02:04;;;;;;;1.05;0.30;;;;;;;9.52;100.00;95173.47;5044932;28;20045;-63
2023/10/27 07:04:31;;;;;;;1.00;0.28;;;;;;;9.57;100.00;95178.78;5042824;28;20491;-63
2023/10/27 07:06:58;;;;;;;0.20;0.20;;;;;;;9.65;100.00;95185.41;5050452;28;20040;-62
2023/10/27 07:09:26;;;;;;;0.10;0.10;;;;;;;9.62;100.00;95184.13;5050794;28;20037;-62
2023/10/27 07:11:52;;;;;;;1.65;0.30;;;;;;;9.66;100.00;95178.91;5050207;28;20059;-62
2023/10/27 07:14:19;;;;;;;0.30;0.17;;;;;;;9.52;100.00;95193.22;5043808;28;20451;-62
2023/10/27 07:16:45;;;;;;;0.88;0.20;;;;;;;9.49;100.00;95189.22;5038284;28;20045;-62
2023/10/27 07:19:12;;;;;;;1.08;0.20;;;;;;;9.58;100.00;95204.72;5042864;28;20044;-62
2023/10/27 07:21:41;;;;;;;0.50;0.20;;;;;;;9.58;100.00;95199.31;5048025;28;20053;-62
2023/10/27 07:24:08;;;;;;;1.08;0.38;;;;;;;9.70;100.00;95190.72;5034564;28;20053;-62
2023/10/27 07:26:35;;;;;;;0.17;0.10;;;;;;;9.70;100.00;95210.41;5043561;28;20041;-62
2023/10/27 07:29:02;;;;;;;1.27;0.20;;;;;;;9.63;100.00;95210.03;5044858;28;20049;-62
2023/10/27 07:31:28;;;;;;;0.40;0.28;;;;;;;9.73;100.00;95209.03;5044745;28;20649;-62
2023/10/27 07:33:55;;;;;;;1.00;0.30;;;;;;;9.63;100.00;95205.41;5044587;28;20088;-63
2023/10/27 07:36:22;;;;;;;0.30;0.20;;;;;;;9.78;100.00;95206.22;5043291;28;20059;-62
2023/10/27 07:38:49;;;;;;;0.50;0.20;;;;;;;9.85;100.00;95211.22;5045196;28;20044;-62
2023/10/27 07:41:16;;;;;;;0.30;0.15;;;;;;;9.87;100.00;95215.22;5046332;28;20041;-61
2023/10/27 07:43:43;;;;;;;1.13;0.20;;;;;;;9.82;100.00;95206.41;5047784;28;20044;-62
2023/10/27 07:46:10;;;;;;;0.73;0.20;;;;;;;9.72;100.00;95212.81;5041892;28;20044;-62
2023/10/27 07:48:37;;;;;;;0.40;0.20;;;;;;;9.69;100.00;95226.94;5045924;28;20048;-62
2023/10/27 07:51:04;;;;;;;1.25;0.50;;;;;;;9.81;100.00;95232.66;5041892;28;20537;-62
2023/10/27 07:53:30;;;;;;;1.10;0.20;;;;;;;9.96;100.00;95236.97;5045433;28;20041;-62
2023/10/27 07:55:57;;;;;;;0.55;0.20;;;;;;;9.89;100.00;95234.63;5046437;28;20033;-63
2023/10/27 07:58:27;;;;;;;0.30;0.25;;;;;;;9.93;100.00;95242.16;5041906;28;20123;-62
2023/10/27 08:00:54;;;;;;;0.43;0.30;;;;;;;9.85;100.00;95243.66;5045193;28;20048;-62
2023/10/27 08:03:22;;;;;;;0.65;0.20;;;;;;;9.94;100.00;95249.97;5053503;28;20058;-63
2023/10/27 08:05:50;;;;;;;0.65;0.40;;;;;;;9.91;100.00;95249.78;5043502;28;20041;-62
2023/10/27 08:08:17;;;;;;;0.50;0.20;;;;;;;9.95;100.00;95246.16;5044926;28;20045;-63
2023/10/27 08:10:47;;;;;;;0.32;0.20;;;;;;;10.02;100.00;95261.97;5042195;28;20122;-63
2023/10/27 08:13:16;;;;;;;0.20;0.20;;;;;;;9.87;100.00;95254.97;5049031;28;20663;-63
2023/10/27 08:15:46;;;;;;;0.10;0.10;;;;;;;9.88;100.00;95264.69;5042050;28;20045;-63
2023/10/27 08:18:13;;;;;;;1.52;0.35;;;;;;;9.81;100.00;95269.69;5043100;28;20420;-63
2023/10/27 08:20:40;;;;;;;0.32;0.20;;;;;;;9.89;100.00;95272.47;5047310;28;20045;-63
2023/10/27 08:23:06;;;;;;;1.08;0.20;;;;;;;9.89;100.00;95280.59;5041977;28;20072;-63
2023/10/27 08:25:33;;;;;;;0.40;0.20;;;;;;;9.90;100.00;95286.81;5041557;28;20040;-63
2023/10/27 08:28:00;;;;;;;0.25;0.13;;;;;;;9.96;100.00;95293.75;5041583;28;20055;-63
2023/10/27 08:30:26;;;;;;;1.08;0.38;;;;;;;10.13;100.00;95292.31;5045736;28;20554;-63
2023/10/27 08:32:53;;;;;;;0.70;0.32;;;;;;;10.25;100.00;95294.53;5044846;28;20044;-63
2023/10/27 08:35:20;;;;;;;1.25;0.22;;;;;;;10.21;100.00;95301.66;5056968;28;20045;-63
2023/10/27 08:37:47;;;;;;;0.30;0.20;;;;;;;10.20;100.00;95298.13;5044907;28;20037;-63
2023/10/27 08:40:14;;;;;;;0.85;0.20;;;;;;;10.16;100.00;95297.13;5045270;28;20124;-63
2023/10/27 08:42:42;;;;;;;0.20;0.15;;;;;;;9.99;100.00;95303.94;5044376;28;20120;-63
2023/10/27 08:45:10;;;;;;;1.80;0.20;;;;;;;9.85;100.00;95303.13;5042210;28;20032;-64
2023/10/27 08:47:36;;;;;;;0.28;0.10;;;;;;;9.77;100.00;95301.94;5048692;28;20044;-63
2023/10/27 08:50:04;;;;;;;0.00;0.00;;;;;;;9.87;100.00;95306.31;5044429;28;20218;-63
2023/10/27 08:52:34;;;;;;;2.00;0.28;;;;;;;9.98;100.00;95307.75;5043801;28;20515;-63
2023/10/27 08:55:02;;;;;;;2.10;0.20;;;;;;;10.05;100.00;95310.06;5042900;28;20056;-63
2023/10/27 08:57:29;;;;;;;0.20;0.20;;;;;;;9.98;100.00;95321.25;5042489;28;20488;-63
2023/10/27 08:59:56;;;;;;;0.17;0.10;;;;;;;10.06;100.00;95324.38;5041788;28;20049;-63
2023/10/27 09:02:33;;;;;;;0.20;0.10;;;;;;;10.19;100.00;95330.88;5048617;28;20087;-63
2023/10/27 09:05:04;;;;;;;2.33;0.50;;;;;;;10.31;100.00;95333.13;5037054;28;20095;-63
2023/10/27 09:07:31;;;;;;;1.17;0.20;;;;;;;10.22;100.00;95339.22;5043087;28;20655;-63
2023/10/27 09:09:59;;;;;;;0.57;0.30;;;;;;;10.12;100.00;95351.03;5043843;28;20064;-63
2023/10/27 09:12:29;;;;;;;0.85;0.32;;;;;;;10.18;100.00;95354.44;5044820;28;20813;-63
2023/10/27 09:15:00;;;;;;;0.75;0.40;;;;;;;10.03;100.00;95360.94;5048625;28;20040;-63
2023/10/27 09:17:29;;;;;;;0.63;0.30;;;;;;;10.01;100.00;95365.81;5034000;28;20129;-63
2023/10/27 09:20:06;;;;;;;2.55;0.50;;;;;;;9.94;100.00;95374.31;5045542;28;20048;-64
2023/10/27 09:22:33;;;;;;;3.22;0.40;;;;;;;9.69;100.00;95364.75;5040559;28;20052;-63
2023/10/27 09:25:13;;;;;;;2.08;1.00;;;;;;;9.73;100.00;95371.97;5036003;28;20552;-63
2023/10/27 09:27:45;;;;;;;1.05;0.30;;;;;;;9.95;100.00;95369.72;5049149;28;20040;-63
2023/10/27 09:30:13;;;;;;;;;;;;;;;9.86;100.00;95373.13;5040612;28;20044;-63
2023/10/27 09:32:40;;;;;;;0.30;0.20;;;;;;;9.82;100.00;95374.00;5045600;28;19932;-63
2023/10/27 09:35:14;;;;;;;0.30;0.20;;;;;;;9.82;100.00;95385.63;5040032;28;20033;-63
2023/10/27 09:37:41;;;;;;;1.45;0.30;;;;;;;9.82;100.00;95384.81;5041360;28;20049;-63
2023/10/27 09:40:09;;;;;;;0.57;0.28;;;;;;;9.92;100.00;95391.94;5039043;28;20037;-63
2023/10/27 09:42:37;;;;;;;0.93;0.30;;;;;;;9.82;100.00;95401.84;5044651;28;20072;-63
2023/10/27 09:45:11;;;;;;;2.75;0.40;;;;;;;9.69;100.00;95405.28;5039753;28;20056;-63
2023/10/27 09:47:40;;;;;;;0.98;0.40;;;;;;;9.75;100.00;95402.22;5039783;28;20045;-64
2023/10/27 09:50:13;;;;;;;3.10;0.40;;;;;;;9.75;100.00;95418.44;5042408;28;20045;-61
2023/10/27 09:52:43;;;;;;;2.03;0.70;;;;;;;9.74;100.00;95414.09;5040800;28;20132;-59
2023/10/27 09:55:12;;;;;;;1.10;0.40;;;;;;;9.83;100.00;95426.94;5042329;28;20725;-64
2023/10/27 09:57:44;;;;;;;1.58;0.40;;;;;;;9.86;100.00;95418.25;5046728;28;20052;-64
2023/10/27 10:00:41;;;;;;;1.20;0.45;;;;;;;10.01;100.00;95409.91;5040010;28;20033;-62
2023/10/27 10:03:09;;;;;;;2.15;0.40;;;;;;;10.24;100.00;95428.97;5042110;28;20088;-62
2023/10/27 10:06:23;;;;;;;0.65;0.40;;;;;;;10.33;100.00;95414.75;5046257;28;20068;-62
2023/10/27 10:09:09;;;;;;;3.92;0.90;;;;;;;10.29;100.00;95417.25;5049316;28;20140;-62
2023/10/27 10:11:47;;;;;;;3.72;0.60;;;;;;;10.31;100.00;95427.78;5048958;28;20401;-62
2023/10/27 10:14:36;;;;;;;2.33;0.55;;;;;;;10.38;100.00;95431.69;5046605;28;20082;-61
2023/10/27 10:17:04;;;;;;;2.70;0.60;;;;;;;10.41;100.00;95433.00;5041824;28;20116;-61
2023/10/27 10:19:50;;;;;;;3.03;0.85;;;;;;;10.29;100.00;95430.78;5044822;28;20037;-64
2023/10/27 10:22:42;;;;;;;2.25;0.50;;;;;;;10.41;100.00;95439.22;5046532;28;20579;-66
2023/10/27 10:25:15;;;;;;;;;;;;;;;10.54;100.00;95436.84;5041077;28;20041;-64
2023/10/27 10:28:08;;;;;;;4.05;0.45;;;;;;;10.60;100.00;95430.25;5047613;28;20327;-64
2023/10/27 10:30:40;;;;;;;2.50;0.52;;;;;;;10.64;100.00;95435.84;5036345;28;20049;-64
2023/10/27 10:33:16;;;;;;;2.22;0.40;;;;;;;10.73;100.00;95430.56;5044679;28;20056;-66
2023/10/27 10:35:44;;;;;;;1.48;0.40;;;;;;;10.82;100.00;95434.16;5062579;28;20045;-67
2023/10/27 10:38:23;;;;;;;1.33;0.80;;;;;;;10.81;100.00;95429.84;5041974;28;20071;-66
2023/10/27 10:40:59;;;;;;;3.38;0.65;;;;;;;10.95;100.00;95432.56;5040678;28;20048;-62
2023/10/27 10:43:29;;;;;;;4.07;0.90;;;;;;;11.11;100.00;95434.94;5047123;28;20124;-63
2023/10/27 10:45:59;;;;;;;2.63;0.70;;;;;;;11.28;100.00;95431.59;5041760;28;20040;-66
2023/10/27 10:48:28;;;;;;;2.08;0.52;;;;;;;11.34;100.00;95434.97;5048136;28;20041;-62
2023/10/27 10:50:59;;;;;;;1.13;0.43;;;;;;;11.50;100.00;95427.31;5046126;28;20045;-63
2023/10/27 10:53:26;;;;;;;1.63;0.47;;;;;;;11.49;100.00;95425.69;5048050;28;20431;-63
2023/10/27 10:55:58;;;;;;;3.63;0.80;;;;;;;11.54;100.00;95422.91;5042861;28;20039;-63
2023/10/27 10:58:26;;;;;;;3.00;0.65;;;;;;;11.55;100.00;95414.47;5051157;28;20057;-63
2023/10/27 11:00:55;;;;;;;2.55;0.90;;;;;;;11.52;100.00;95412.38;5038344;28;20048;-62
2023/10/27 11:03:23;;;;;;;3.80;0.60;;;;;;;11.70;100.00;95413.31;5047840;28;20451;-62
2023/10/27 11:05:54;;;;;;;5.13;0.80;;;;;;;11.40;100.00;95412.91;5046680;28;20032;-61
2023/10/27 11:08:25;;;;;;;;;;;;;;;11.47;100.00;95412.50;5040879;28;20055;-62
2023/10/27 11:11:03;;;;;;;2.33;0.45;;;;;;;11.62;100.00;95416.75;5042216;28;19925;-62
2023/10/27 11:13:31;;;;;;;4.13;0.82;;;;;;;11.68;100.00;95404.66;5045829;28;20041;-63
2023/10/27 11:16:00;;;;;;;4.57;0.98;;;;;;;11.75;100.00;95401.53;5042336;28;20528;-63
2023/10/27 11:18:28;;;;;;;5.03;1.20;;;;;;;11.86;100.00;95404.78;5043332;28;20052;-63
2023/10/27 11:20:55;;;;;;;5.93;1.13;;;;;;;11.89;100.00;95409.59;5042153;28;20055;-63
2023/10/27 11:23:26;;;;;;;3.55;1.40;;;;;;;12.02;100.00;95399.00;5034319;28;20069;-65
2023/10/27 11:26:04;;;;;;;4.85;1.45;;;;;;;11.96;100.00;95395.59;5043428;28;20534;-65
2023/10/27 11:28:37;;;;;;;6.05;0.70;;;;;;;12.00;100.00;95391.16;5043574;28;20051;-63
2023/10/27 11:31:17;;;;;;;3.05;0.60;;;;;;;12.07;100.00;95388.84;5048653;28;20045;-64
2023/10/27 11:33:56;;;;;;;1.85;0.50;;;;;;;12.18;100.00;95389.38;5047720;28;20128;-64
2023/10/27 11:36:35;;;;;;;4.03;0.95;;;;;;;12.30;99.54;95399.66;5040910;28;20044;-65